Time;durP1;ratioP1;P1;durP2;ratioP2;P2;SDS_P1;SDS_P2;PMS_P1;PMS_P2;Temp;Humidity;BMP_temperature;BMP_pressure;BME280_temperature;BME280_humidity;BME280_pressure;Samples;Min_cycle;Max_cycle;Signal;HPM_P1;HPM_P2
2022/05/13 00:01:31;;;;;;;14.20;6.17;;;;;;;16.28;66.57;99297.43;1767396;81;21052;-43
2022/05/13 00:03:58;;;;;;;15.05;6.62;;;;;;;16.25;66.70;99302.34;1766821;81;21016;-43
2022/05/13 00:06:25;;;;;;;13.88;6.53;;;;;;;16.20;66.68;99304.12;1766735;81;21076;-43
2022/05/13 00:08:51;;;;;;;17.37;6.97;;;;;;;16.16;66.71;99303.36;1766827;81;21002;-43
2022/05/13 00:11:18;;;;;;;15.15;6.58;;;;;;;16.12;66.66;99306.09;1766628;81;21128;-43
2022/05/13 00:13:45;;;;;;;12.53;6.53;;;;;;;16.11;66.65;99301.05;1767071;81;20936;-43
2022/05/13 00:16:12;;;;;;;17.37;6.60;;;;;;;16.14;66.63;99306.48;1766864;81;21017;-43
2022/05/13 00:18:39;;;;;;;15.38;6.80;;;;;;;16.12;66.60;99303.97;1766673;81;21492;-43
2022/05/13 00:21:06;;;;;;;18.77;7.00;;;;;;;16.06;66.58;99308.48;1766714;81;21037;-43
2022/05/13 00:23:33;;;;;;;14.03;7.15;;;;;;;15.99;66.63;99313.97;1766947;81;21196;-43
2022/05/13 00:26:00;;;;;;;15.58;7.10;;;;;;;15.97;66.71;99314.97;1766965;81;21012;-43
2022/05/13 00:28:27;;;;;;;12.60;6.40;;;;;;;15.96;66.62;99312.63;1766885;81;20973;-43
2022/05/13 00:30:53;;;;;;;14.73;6.92;;;;;;;15.93;66.55;99316.91;1766982;81;21048;-43
2022/05/13 00:33:21;;;;;;;14.70;6.30;;;;;;;15.92;66.55;99324.95;1766964;81;21005;-42
2022/05/13 00:35:48;;;;;;;16.50;6.75;;;;;;;15.92;66.45;99327.69;1766690;81;21113;-42
2022/05/13 00:38:15;;;;;;;14.75;7.70;;;;;;;15.94;66.38;99323.16;1766663;81;20997;-43
2022/05/13 00:40:43;;;;;;;15.45;7.15;;;;;;;15.92;66.22;99328.27;1766685;81;20972;-43
2022/05/13 00:43:12;;;;;;;18.42;7.60;;;;;;;15.85;66.06;99328.27;1766809;81;20933;-43
2022/05/13 00:45:38;;;;;;;22.80;8.05;;;;;;;15.79;65.85;99329.84;1767097;81;21088;-43
2022/05/13 00:48:07;;;;;;;14.65;7.90;;;;;;;15.65;65.75;99331.45;1766566;81;21220;-43
2022/05/13 00:50:36;;;;;;;17.45;8.98;;;;;;;15.53;66.07;99329.73;1766631;81;21519;-43
2022/05/13 00:53:03;;;;;;;18.55;8.03;;;;;;;15.44;66.16;99332.81;1785920;80;20933;-43
2022/05/13 00:55:39;;;;;;;17.65;8.05;;;;;;;15.39;66.25;99333.81;1785986;79;21549;-43
2022/05/13 00:58:07;;;;;;;20.15;8.98;;;;;;;15.41;66.12;99328.72;1786248;80;20897;-43
2022/05/13 01:00:35;;;;;;;16.20;8.18;;;;;;;15.38;66.16;99330.87;1786327;80;21093;-43
2022/05/13 01:03:05;;;;;;;14.28;7.97;;;;;;;15.36;66.10;99335.95;1780866;80;20948;-43
2022/05/13 01:05:33;;;;;;;19.80;8.70;;;;;;;15.34;66.14;99339.09;1786078;80;21087;-43
2022/05/13 01:08:00;;;;;;;17.35;8.28;;;;;;;15.31;66.15;99343.16;1780913;79;21549;-43
2022/05/13 01:10:28;;;;;;;18.02;8.40;;;;;;;15.28;66.14;99346.11;1785948;80;21048;-43
2022/05/13 01:12:57;;;;;;;19.48;8.23;;;;;;;15.27;66.15;99341.03;1786181;80;21186;-43
2022/05/13 01:15:28;;;;;;;19.25;8.08;;;;;;;15.26;66.14;99348.44;1785899;79;21018;-43
2022/05/13 01:18:07;;;;;;;14.55;8.10;;;;;;;15.28;66.09;99345.33;1786467;80;21491;-43
2022/05/13 01:20:46;;;;;;;20.65;8.93;;;;;;;15.30;65.87;99336.92;1786197;80;21543;-42
2022/05/13 01:23:15;;;;;;;20.72;8.63;;;;;;;15.28;65.90;99343.95;1785849;80;21008;-42
2022/05/13 01:25:53;;;;;;;20.40;8.70;;;;;;;15.22;65.81;99342.98;1785884;80;21232;-43
2022/05/13 01:28:27;;;;;;;17.92;9.05;;;;;;;15.16;65.70;99344.53;1784554;80;21515;-42
2022/05/13 01:30:57;;;;;;;16.85;8.70;;;;;;;15.11;65.65;99347.66;1785828;80;21059;-43
2022/05/13 01:33:24;;;;;;;;;;;;;;;15.04;65.65;99349.03;1788824;80;21036;-43
2022/05/13 01:35:54;;;;;;;17.57;8.78;;;;;;;14.99;65.69;99351.36;1786072;79;20167;-43
2022/05/13 01:38:26;;;;;;;21.50;8.93;;;;;;;14.79;65.98;99338.09;1785854;80;21089;-43
2022/05/13 01:40:52;;;;;;;18.98;8.68;;;;;;;14.75;66.23;99346.07;1785949;80;21550;-43
2022/05/13 01:43:19;;;;;;;15.00;8.45;;;;;;;14.74;66.30;99348.59;1785796;80;20988;-43
2022/05/13 01:45:47;;;;;;;15.75;9.05;;;;;;;14.74;66.33;99355.42;1785850;80;21632;-43
2022/05/13 01:48:14;;;;;;;16.00;8.78;;;;;;;14.70;66.21;99354.05;1785788;80;21094;-43
2022/05/13 01:50:41;;;;;;;20.05;8.78;;;;;;;14.67;66.05;99362.21;1786118;80;21531;-43
2022/05/13 01:53:08;;;;;;;22.82;8.35;;;;;;;14.63;66.00;99362.79;1785840;79;21612;-43
2022/05/13 01:55:35;;;;;;;14.50;8.78;;;;;;;14.59;66.35;99368.83;1785906;80;20944;-43
2022/05/13 01:58:02;;;;;;;18.27;7.87;;;;;;;14.48;67.03;99372.09;1785862;80;21027;-42
2022/05/13 02:00:28;;;;;;;15.68;7.83;;;;;;;14.40;67.51;99371.88;1785873;80;21028;-43
2022/05/13 02:05:41;;;;;;;15.20;8.35;;;;;;;14.38;67.65;99376.95;1785895;80;21489;-43
2022/05/13 02:08:08;;;;;;;16.00;8.38;;;;;;;14.33;67.75;99375.33;1786307;79;20979;-43
2022/05/13 02:10:35;;;;;;;17.90;9.70;;;;;;;14.28;68.16;99377.09;1786134;80;20952;-43
2022/05/13 02:13:02;;;;;;;23.20;10.18;;;;;;;14.24;68.36;99379.78;1786211;79;21088;-43
2022/05/13 02:15:29;;;;;;;16.62;8.45;;;;;;;14.22;68.36;99379.39;1785964;79;21218;-43
2022/05/13 02:17:56;;;;;;;19.62;8.63;;;;;;;14.23;68.09;99386.39;1785842;80;21011;-43
2022/05/13 02:20:22;;;;;;;21.80;8.88;;;;;;;14.25;67.75;99384.65;1785823;80;21016;-43
2022/05/13 02:22:49;;;;;;;19.85;9.35;;;;;;;14.26;67.59;99383.49;1785924;79;20984;-43
2022/05/13 02:25:18;;;;;;;21.25;10.45;;;;;;;14.24;67.56;99387.95;1785728;79;22130;-43
2022/05/13 02:27:45;;;;;;;22.20;10.45;;;;;;;14.23;67.44;99383.66;1785862;79;21232;-43
2022/05/13 02:30:14;;;;;;;21.95;10.78;;;;;;;14.20;67.41;99378.98;1785924;79;21572;-43
2022/05/13 02:32:40;;;;;;;18.25;10.40;;;;;;;14.17;67.38;99387.94;1786038;80;20983;-43
2022/05/13 02:35:09;;;;;;;19.52;10.98;;;;;;;14.14;67.34;99385.95;1785853;80;21044;-43
2022/05/13 02:37:35;;;;;;;20.82;9.08;;;;;;;14.11;67.33;99389.46;1786035;80;21004;-43
2022/05/13 02:40:03;;;;;;;15.65;10.25;;;;;;;14.09;67.28;99387.69;1785912;80;21566;-43
2022/05/13 02:42:32;;;;;;;17.25;9.98;;;;;;;14.09;67.52;99386.32;1785743;80;20999;-43
2022/05/13 02:45:00;;;;;;;20.50;11.03;;;;;;;14.10;67.64;99389.25;1785873;80;20999;-42
2022/05/13 02:47:27;;;;;;;20.48;10.88;;;;;;;14.10;67.75;99388.47;1785858;80;20956;-43
2022/05/13 02:50:27;;;;;;;20.77;9.90;;;;;;;14.09;67.75;99389.05;1785996;80;21048;-42
2022/05/13 02:52:29;;;;;;;17.27;9.58;;;;;;;14.06;67.70;99383.00;1759917;80;21316;-43
2022/05/13 02:54:56;;;;;;;19.87;10.28;;;;;;;14.03;67.80;99382.42;1766682;81;21012;-43
2022/05/13 02:57:23;;;;;;;23.02;9.33;;;;;;;14.03;67.81;99391.95;1766848;81;21523;-43
2022/05/13 02:59:50;;;;;;;20.45;8.00;;;;;;;14.05;67.57;99396.43;1766708;81;21037;-42
2022/05/13 03:02:16;;;;;;;15.95;6.60;;;;;;;14.05;67.48;99396.43;1766808;81;21048;-43
2022/05/13 03:04:44;;;;;;;8.88;5.80;;;;;;;14.03;67.55;99394.69;1766910;81;21295;-43
2022/05/13 03:07:10;;;;;;;11.10;5.62;;;;;;;13.99;67.70;99395.22;1766609;81;21546;-43
2022/05/13 03:09:37;;;;;;;9.88;4.97;;;;;;;13.92;67.62;99400.65;1766603;81;20926;-43
2022/05/13 03:12:06;;;;;;;12.98;5.05;;;;;;;13.83;67.61;99404.30;1766558;81;21045;-43
2022/05/13 03:14:32;;;;;;;11.85;4.90;;;;;;;13.77;67.79;99414.77;1766763;81;21048;-43
2022/05/13 03:16:59;;;;;;;5.47;3.87;;;;;;;13.71;67.95;99415.48;1766560;81;21287;-43
2022/05/13 03:19:26;;;;;;;9.85;3.62;;;;;;;13.68;67.99;99410.80;1766227;81;21436;-43
2022/05/13 03:21:53;;;;;;;9.80;3.80;;;;;;;13.70;67.88;99412.58;1766645;81;21534;-43
2022/05/13 03:24:20;;;;;;;9.63;4.50;;;;;;;13.73;67.92;99411.23;1766373;81;21116;-43
2022/05/13 03:26:47;;;;;;;6.40;3.45;;;;;;;13.74;67.80;99413.38;1766680;81;20993;-43
2022/05/13 03:29:14;;;;;;;9.53;3.70;;;;;;;13.70;67.73;99420.75;1766709;81;21184;-43
2022/05/13 03:31:40;;;;;;;8.45;3.83;;;;;;;13.65;67.94;99421.86;1766519;81;21031;-43
2022/05/13 03:34:07;;;;;;;5.35;3.50;;;;;;;13.61;68.12;99414.82;1766699;81;20989;-42
2022/05/13 03:36:34;;;;;;;13.32;3.27;;;;;;;13.63;68.23;99413.87;1766508;81;21100;-43
2022/05/13 03:39:00;;;;;;;10.18;3.77;;;;;;;13.66;68.31;99417.20;1766780;81;21028;-42
2022/05/13 03:41:27;;;;;;;10.15;3.33;;;;;;;13.68;68.32;99418.40;1766872;81;21269;-43
2022/05/13 03:43:54;;;;;;;8.75;3.92;;;;;;;13.72;68.31;99421.14;1766696;81;21504;-43
2022/05/13 03:46:21;;;;;;;9.18;3.58;;;;;;;13.73;68.06;99415.90;1766714;81;20969;-43
2022/05/13 03:48:47;;;;;;;11.43;3.70;;;;;;;13.77;68.06;99420.21;1766927;81;21204;-43
2022/05/13 03:51:14;;;;;;;9.38;3.90;;;;;;;13.77;68.07;99418.84;1766885;81;21040;-43
2022/05/13 03:53:41;;;;;;;12.50;4.15;;;;;;;13.79;68.13;99418.48;1782548;80;23109;-43
2022/05/13 03:56:08;;;;;;;9.93;3.70;;;;;;;13.80;68.06;99421.38;1786033;80;21472;-43
2022/05/13 03:58:35;;;;;;;10.38;3.75;;;;;;;13.79;68.17;99423.93;1786513;80;21043;-43
2022/05/13 04:01:02;;;;;;;9.60;3.37;;;;;;;13.80;68.31;99431.70;1786272;80;20992;-43
2022/05/13 04:03:29;;;;;;;7.28;3.27;;;;;;;13.82;68.19;99432.13;1786515;80;21103;-43
2022/05/13 04:08:59;;;;;;;9.93;3.10;;;;;;;13.87;67.48;99444.61;1786090;80;21078;-43
2022/05/13 04:11:36;;;;;;;6.67;3.00;;;;;;;13.92;67.29;99436.08;1786084;80;21019;-43
2022/05/13 04:16:43;;;;;;;3.93;2.70;;;;;;;14.10;66.32;99443.78;1685260;84;21104;-42
2022/05/13 04:19:12;;;;;;;5.22;2.62;;;;;;;14.13;66.07;99444.40;1785946;80;22220;-42
2022/05/13 04:21:39;;;;;;;7.72;2.75;;;;;;;14.18;65.93;99441.31;1785854;80;21589;-43
2022/05/13 04:24:09;;;;;;;9.40;3.20;;;;;;;14.25;66.09;99433.73;1786235;80;20999;-43
2022/05/13 04:26:36;;;;;;;9.93;2.60;;;;;;;14.31;65.90;99438.45;1786228;80;20984;-43
2022/05/13 04:29:03;;;;;;;11.35;2.62;;;;;;;14.37;65.04;99439.48;1786079;80;21036;-43
2022/05/13 04:31:33;;;;;;;11.15;2.98;;;;;;;14.40;64.92;99450.98;1785897;80;21113;-43
2022/05/13 04:33:59;;;;;;;4.03;2.27;;;;;;;14.45;65.29;99456.86;1786294;80;21024;-43
2022/05/13 04:36:26;;;;;;;6.05;2.40;;;;;;;14.52;65.33;99447.94;1785928;79;21429;-43
2022/05/13 04:38:54;;;;;;;7.95;2.92;;;;;;;14.60;64.75;99448.16;1786026;80;21026;-43
2022/05/13 04:44:07;;;;;;;8.15;3.33;;;;;;;14.63;64.22;99456.92;1786141;79;21125;-43
2022/05/13 04:46:34;;;;;;;4.92;2.10;;;;;;;14.69;64.27;99466.31;1786187;80;20920;-43
2022/05/13 04:49:01;;;;;;;5.47;2.70;;;;;;;14.74;63.58;99459.13;1786210;80;21004;-43
2022/05/13 04:51:27;;;;;;;5.55;2.80;;;;;;;14.78;63.43;99457.18;1786065;80;21114;-43
2022/05/13 04:53:55;;;;;;;11.12;2.37;;;;;;;14.85;63.55;99455.85;1786240;80;21024;-43
2022/05/13 04:56:23;;;;;;;4.65;2.20;;;;;;;14.95;63.53;99456.47;1785921;80;21522;-43
2022/05/13 04:58:49;;;;;;;4.67;2.22;;;;;;;15.08;63.29;99459.61;1785989;80;21640;-43
2022/05/13 05:01:18;;;;;;;6.20;2.02;;;;;;;15.18;62.78;99459.64;1785787;80;21091;-43
2022/05/13 05:03:45;;;;;;;8.63;2.30;;;;;;;15.29;63.16;99462.39;1786067;79;21017;-43
2022/05/13 05:06:13;;;;;;;9.55;2.30;;;;;;;15.41;62.04;99455.75;1785866;79;21016;-43
2022/05/13 05:08:41;;;;;;;4.67;2.05;;;;;;;15.49;61.62;99454.61;1786030;79;21212;-43
2022/05/13 05:11:08;;;;;;;4.97;2.27;;;;;;;15.57;61.59;99452.09;1786016;80;20970;-43
2022/05/13 05:13:39;;;;;;;6.25;1.98;;;;;;;15.65;60.30;99453.64;1785936;80;20980;-43
2022/05/13 05:16:06;;;;;;;4.80;1.80;;;;;;;15.68;59.89;99462.45;1786046;79;21063;-43
2022/05/13 05:18:35;;;;;;;6.80;1.72;;;;;;;15.69;59.21;99451.69;1786150;80;21549;-43
2022/05/13 05:21:01;;;;;;;3.08;1.60;;;;;;;15.71;59.52;99467.13;1786143;80;21437;-43
2022/05/13 05:23:31;;;;;;;3.70;1.30;;;;;;;15.75;58.98;99466.53;1785820;80;20921;-43
2022/05/13 05:25:58;;;;;;;6.05;1.60;;;;;;;15.78;58.10;99461.64;1786151;80;21486;-43
2022/05/13 05:28:27;;;;;;;6.95;1.47;;;;;;;15.79;57.40;99464.58;1786174;80;21048;-43
2022/05/13 05:30:56;;;;;;;3.55;1.27;;;;;;;15.78;57.58;99460.27;1786325;80;21016;-43
2022/05/13 05:33:24;;;;;;;3.27;1.30;;;;;;;15.82;56.95;99457.55;1786103;79;20980;-43
2022/05/13 05:35:51;;;;;;;2.80;1.50;;;;;;;15.84;56.82;99455.20;1786198;80;21490;-43
2022/05/13 05:38:18;;;;;;;6.15;1.67;;;;;;;15.90;57.71;99454.42;1786027;80;21040;-43
2022/05/13 05:40:46;;;;;;;3.50;1.50;;;;;;;15.97;57.11;99451.69;1786022;80;21502;-43
2022/05/13 05:43:15;;;;;;;4.83;1.67;;;;;;;16.02;55.77;99470.41;1786144;79;21514;-43
2022/05/13 05:45:42;;;;;;;2.53;1.47;;;;;;;16.06;54.96;99474.52;1786407;80;21150;-43
2022/05/13 05:48:11;;;;;;;6.92;1.50;;;;;;;16.04;54.67;99479.01;1785955;80;21112;-43
2022/05/13 05:50:37;;;;;;;4.03;1.50;;;;;;;16.04;54.25;99489.16;1786233;80;20952;-43
2022/05/13 05:53:05;;;;;;;4.47;1.30;;;;;;;16.04;54.98;99480.38;1789316;78;20926;-43
2022/05/13 05:58:18;;;;;;;3.55;1.60;;;;;;;16.17;55.51;99492.29;1783379;80;21136;-43
2022/05/13 06:00:48;;;;;;;2.52;1.15;;;;;;;16.25;53.00;99500.67;1783537;80;20976;-43
2022/05/13 06:03:15;;;;;;;3.85;1.32;;;;;;;16.29;52.65;99506.33;1783613;80;20956;-44
2022/05/13 06:05:46;;;;;;;2.87;1.47;;;;;;;16.36;50.75;99507.66;1783611;80;21017;-43
2022/05/13 06:08:14;;;;;;;2.30;1.00;;;;;;;16.41;50.37;99510.61;1778130;79;21071;-43
2022/05/13 06:10:41;;;;;;;2.15;1.05;;;;;;;16.42;50.15;99501.98;1783359;80;21215;-43
2022/05/13 06:13:10;;;;;;;3.92;1.07;;;;;;;16.45;50.34;99503.17;1783109;80;21461;-43
2022/05/13 06:15:37;;;;;;;4.03;1.47;;;;;;;16.49;50.62;99502.57;1783270;80;21046;-43
2022/05/13 06:18:03;;;;;;;2.95;1.30;;;;;;;16.56;50.03;99500.38;1783293;80;22062;-43
2022/05/13 06:20:30;;;;;;;3.72;1.40;;;;;;;16.60;50.23;99503.36;1783306;80;21056;-43
2022/05/13 06:22:57;;;;;;;4.53;1.30;;;;;;;16.63;49.74;99501.19;1783398;80;21265;-43
2022/05/13 06:25:24;;;;;;;4.25;1.65;;;;;;;16.68;51.64;99501.36;1783229;80;20984;-44
2022/05/13 06:27:52;;;;;;;4.75;1.35;;;;;;;16.76;52.36;99503.67;1783529;80;20981;-43
2022/05/13 06:30:26;;;;;;;3.80;1.42;;;;;;;16.85;50.87;99502.66;1783246;80;21089;-43
2022/05/13 06:32:53;;;;;;;3.45;1.35;;;;;;;16.94;50.30;99501.62;1783009;80;21578;-43
2022/05/13 06:35:21;;;;;;;2.85;1.57;;;;;;;16.98;48.91;99503.59;1783361;80;21232;-44
2022/05/13 06:37:47;;;;;;;5.55;1.27;;;;;;;16.98;49.23;99503.59;1783189;80;21629;-43
2022/05/13 06:40:14;;;;;;;2.22;1.25;;;;;;;17.02;48.93;99507.09;1783305;80;21032;-43
2022/05/13 06:42:41;;;;;;;2.65;1.10;;;;;;;17.06;49.54;99503.73;1783476;80;21578;-44
2022/05/13 06:45:09;;;;;;;4.22;1.15;;;;;;;17.14;48.66;99503.30;1783743;80;21463;-43
2022/05/13 06:47:36;;;;;;;6.90;1.95;;;;;;;17.22;48.28;99506.79;1783866;80;21080;-43
2022/05/13 06:50:06;;;;;;;3.58;1.70;;;;;;;17.28;48.53;99496.98;1783708;80;21014;-43
2022/05/13 06:52:33;;;;;;;6.25;1.82;;;;;;;17.38;48.94;99502.95;1783682;80;20976;-43
2022/05/13 06:55:00;;;;;;;3.45;1.27;;;;;;;17.49;48.68;99502.30;1783254;79;21541;-43
2022/05/13 06:57:26;;;;;;;6.03;1.15;;;;;;;17.56;47.56;99506.37;1783473;80;21095;-44
2022/05/13 06:59:53;;;;;;;6.55;1.60;;;;;;;17.57;46.29;99507.91;1783505;80;23102;-44
2022/05/13 07:02:22;;;;;;;5.28;1.50;;;;;;;17.54;46.06;99510.11;1783211;80;21023;-44
2022/05/13 07:04:49;;;;;;;2.67;1.45;;;;;;;17.54;46.90;99510.69;1783396;80;21087;-43
2022/05/13 07:07:15;;;;;;;3.65;1.52;;;;;;;17.57;46.85;99512.03;1783255;80;20941;-44
2022/05/13 07:09:42;;;;;;;4.08;1.30;;;;;;;17.64;47.23;99506.54;1783173;80;21027;-43
2022/05/13 07:12:10;;;;;;;6.78;1.10;;;;;;;17.77;47.02;99513.67;1783186;80;21124;-43
2022/05/13 07:14:38;;;;;;;2.60;1.20;;;;;;;17.87;45.79;99512.03;1783519;80;21040;-44
2022/05/13 07:17:05;;;;;;;3.77;1.00;;;;;;;17.90;45.25;99511.24;1783626;80;20917;-44
2022/05/13 07:19:32;;;;;;;4.03;1.12;;;;;;;17.91;46.55;99504.58;1783468;80;20951;-43
2022/05/13 07:22:00;;;;;;;2.22;1.02;;;;;;;18.02;46.75;99507.98;1783475;80;21027;-43
2022/05/13 07:24:28;;;;;;;1.82;0.98;;;;;;;18.12;46.28;99512.61;1783396;80;21868;-44
2022/05/13 07:26:55;;;;;;;4.00;1.20;;;;;;;18.19;44.59;99512.55;1783762;80;21357;-43
2022/05/13 07:29:22;;;;;;;3.65;1.50;;;;;;;18.25;45.32;99516.39;1783487;80;21023;-44
2022/05/13 07:31:49;;;;;;;4.25;1.32;;;;;;;18.36;45.17;99514.33;1783438;80;20992;-44
2022/05/13 07:34:16;;;;;;;1.55;0.88;;;;;;;18.45;43.89;99509.13;1783405;80;21071;-43
2022/05/13 07:36:43;;;;;;;2.85;1.30;;;;;;;18.32;43.57;99488.89;1783431;80;21137;-44
2022/05/13 07:41:55;;;;;;;1.72;1.10;;;;;;;18.61;43.33;99514.09;1783497;80;21011;-43
2022/05/13 07:44:22;;;;;;;2.02;0.90;;;;;;;18.59;43.24;99526.07;1783600;80;21036;-44
2022/05/13 07:46:49;;;;;;;2.95;1.10;;;;;;;18.56;43.23;99514.55;1783668;80;21012;-44
2022/05/13 07:49:15;;;;;;;2.05;0.98;;;;;;;18.56;44.47;99523.56;1783734;80;21237;-44
2022/05/13 07:51:43;;;;;;;3.80;1.25;;;;;;;18.60;43.70;99517.44;1783620;80;20992;-44
2022/05/13 07:54:10;;;;;;;2.58;1.00;;;;;;;18.68;44.71;99513.25;1783382;80;21004;-44
2022/05/13 07:56:37;;;;;;;3.47;0.93;;;;;;;18.79;44.72;99518.78;1783423;80;21004;-44
2022/05/13 07:59:03;;;;;;;3.50;1.10;;;;;;;18.93;44.60;99517.23;1783502;80;21075;-44
2022/05/13 08:01:31;;;;;;;3.47;1.00;;;;;;;19.09;43.75;99518.02;1783368;80;21118;-43
2022/05/13 08:03:59;;;;;;;5.90;0.95;;;;;;;19.18;44.09;99522.41;1783431;80;21047;-43
2022/05/13 08:06:26;;;;;;;4.40;1.10;;;;;;;19.23;43.60;99521.95;1783364;80;20979;-44
2022/05/13 08:08:56;;;;;;;5.42;1.00;;;;;;;19.25;43.24;99525.08;1783432;80;21099;-43
2022/05/13 08:11:26;;;;;;;2.65;1.00;;;;;;;19.18;42.69;99525.16;1783548;80;20940;-43
2022/05/13 08:13:52;;;;;;;3.33;0.85;;;;;;;19.03;43.21;99527.91;1783831;80;21155;-44
2022/05/13 08:16:22;;;;;;;2.15;0.98;;;;;;;19.03;43.21;99527.91;1783437;80;20980;-44
2022/05/13 08:18:49;;;;;;;2.77;0.90;;;;;;;18.93;42.84;99528.23;1783883;80;21612;-44
2022/05/13 08:21:17;;;;;;;2.80;0.88;;;;;;;18.84;42.83;99521.67;1783466;80;21483;-44
2022/05/13 08:23:45;;;;;;;5.83;0.95;;;;;;;18.79;42.70;99522.13;1783416;80;21079;-44
2022/05/13 08:26:12;;;;;;;5.30;0.98;;;;;;;18.83;41.91;99514.64;1783516;80;23089;-44
2022/05/13 08:28:40;;;;;;;2.25;0.93;;;;;;;18.85;42.29;99513.63;1783647;80;20952;-44
2022/05/13 08:31:06;;;;;;;2.25;1.00;;;;;;;18.85;42.54;99511.66;1783916;80;21006;-44
2022/05/13 08:33:34;;;;;;;3.00;0.98;;;;;;;18.82;42.16;99517.20;1783674;80;21032;-44
2022/05/13 08:36:04;;;;;;;4.25;1.30;;;;;;;18.81;42.71;99519.75;1783600;80;21035;-44
2022/05/13 08:38:35;;;;;;;8.03;1.10;;;;;;;18.83;43.48;99519.52;1783776;80;21172;-43
2022/05/13 08:41:40;;;;;;;2.25;0.90;;;;;;;18.85;42.66;99520.48;1783215;80;21498;-43
2022/05/13 08:44:09;;;;;;;1.27;0.68;;;;;;;18.78;42.71;99520.00;1783344;79;21031;-44
2022/05/13 08:46:44;;;;;;;6.95;0.88;;;;;;;18.71;43.13;99514.57;1783447;80;20975;-44
2022/05/13 08:49:31;;;;;;;1.55;0.82;;;;;;;18.77;43.01;99508.03;1783365;80;20989;-44
2022/05/13 08:55:08;;;;;;;2.98;1.10;;;;;;;19.03;42.92;99514.17;1770732;79;21458;-44
2022/05/13 08:57:39;;;;;;;1.77;0.90;;;;;;;18.99;43.37;99462.02;1740658;81;21099;-44
2022/05/13 09:00:11;;;;;;;2.30;1.02;;;;;;;19.55;42.58;99501.52;1766869;81;21357;-44
2022/05/13 09:02:43;;;;;;;3.22;0.70;;;;;;;19.74;40.57;99498.07;1767114;81;21058;-43
2022/05/13 09:05:24;;;;;;;2.17;0.82;;;;;;;19.81;41.72;99501.47;1766893;81;21229;-43
2022/05/13 09:07:51;;;;;;;2.37;0.93;;;;;;;19.95;41.07;99494.95;1766221;81;21475;-44
2022/05/13 09:10:18;;;;;;;2.40;0.75;;;;;;;20.06;40.13;99487.89;1766655;81;21004;-44
2022/05/13 09:13:15;;;;;;;3.05;0.80;;;;;;;20.12;39.66;99481.49;1766775;81;21056;-44
2022/05/13 09:15:47;;;;;;;2.02;0.80;;;;;;;20.20;39.98;99479.38;1728039;81;21037;-44
2022/05/13 09:18:31;;;;;;;4.47;0.82;;;;;;;20.17;39.25;99482.98;1766685;81;22020;-44
2022/05/13 09:21:05;;;;;;;2.80;1.15;;;;;;;20.06;39.48;99496.93;1766583;81;20964;-44
2022/05/13 09:23:32;;;;;;;2.20;0.80;;;;;;;19.91;40.89;99493.64;1765402;81;21035;-44
2022/05/13 09:26:13;;;;;;;3.67;0.90;;;;;;;19.89;39.80;99489.17;1766544;81;20929;-44
2022/05/13 09:29:03;;;;;;;3.12;1.10;;;;;;;19.81;40.32;99495.97;1766725;81;21088;-43
2022/05/13 09:31:33;;;;;;;2.90;0.90;;;;;;;19.64;40.43;99486.05;1766632;81;22187;-43
2022/05/13 09:34:00;;;;;;;2.83;1.10;;;;;;;19.44;40.03;99485.17;1766832;81;20985;-43
2022/05/13 09:36:31;;;;;;;2.80;0.95;;;;;;;19.37;41.81;99483.86;1766616;81;21032;-43
2022/05/13 09:39:01;;;;;;;5.47;1.12;;;;;;;19.48;40.89;99485.30;1766754;81;20997;-44
2022/05/13 09:41:34;;;;;;;3.65;0.70;;;;;;;19.60;40.85;99477.08;1766517;81;21045;-44
2022/05/13 09:44:15;;;;;;;3.00;1.10;;;;;;;19.79;41.22;99482.47;1766794;81;21020;-43
2022/05/13 09:46:47;;;;;;;4.58;1.02;;;;;;;19.98;40.92;99480.38;1766587;81;22091;-43
2022/05/13 09:49:34;;;;;;;2.87;1.00;;;;;;;20.21;40.76;99476.22;1767040;81;21008;-43
2022/05/13 09:52:17;;;;;;;2.65;1.05;;;;;;;20.27;39.16;99475.91;1766759;81;21023;-44
2022/05/13 09:54:47;;;;;;;2.60;0.88;;;;;;;20.24;39.87;99469.85;1775499;80;21079;-43
2022/05/13 09:57:27;;;;;;;;;;;;;;;20.29;40.09;99465.23;1788500;80;21162;-43
2022/05/13 10:00:07;;;;;;;4.28;0.98;;;;;;;20.34;39.23;99460.65;1785801;80;20199;-44
2022/05/13 10:02:38;;;;;;;3.55;0.90;;;;;;;20.31;39.83;99463.48;1785610;80;21048;-44
2022/05/13 10:05:22;;;;;;;4.10;1.10;;;;;;;20.38;39.26;99467.48;1785979;80;21024;-44
2022/05/13 10:07:58;;;;;;;2.95;1.10;;;;;;;20.39;37.83;99454.65;1785820;80;20968;-44
2022/05/13 10:16:21;;;;;;;1.98;0.90;;;;;;;20.68;37.18;99461.75;1786052;80;21090;-44
2022/05/13 10:18:53;;;;;;;3.47;1.17;;;;;;;20.68;36.01;99450.73;1785813;80;21554;-43
2022/05/13 10:21:25;;;;;;;2.37;1.05;;;;;;;20.70;36.88;99450.31;1786103;80;21040;-43
2022/05/13 10:24:10;;;;;;;3.17;1.00;;;;;;;20.69;35.89;99448.75;1785693;79;21238;-44
2022/05/13 10:26:39;;;;;;;1.82;1.00;;;;;;;20.61;35.26;99451.48;1783996;80;20983;-43
2022/05/13 10:29:13;;;;;;;1.95;0.90;;;;;;;20.57;35.50;99447.44;1786219;80;21047;-43
2022/05/13 10:31:43;;;;;;;5.70;1.00;;;;;;;20.63;35.44;99444.94;1785987;80;21072;-43
2022/05/13 10:34:35;;;;;;;1.85;0.80;;;;;;;20.73;35.32;99439.80;1786170;80;21683;-43
2022/05/13 10:37:22;;;;;;;2.05;1.00;;;;;;;20.90;34.93;99437.29;1785944;80;21139;-43
2022/05/13 10:40:03;;;;;;;3.27;1.00;;;;;;;21.10;34.68;99437.25;1785848;80;21588;-43
2022/05/13 10:42:39;;;;;;;6.85;1.02;;;;;;;21.28;34.87;99429.97;1785737;80;21000;-44
2022/05/13 10:45:26;;;;;;;3.55;0.88;;;;;;;21.59;34.47;99439.47;1785847;79;21603;-44
2022/05/13 10:48:06;;;;;;;3.33;0.90;;;;;;;21.76;33.71;99429.19;1786069;80;21518;-44
2022/05/13 10:50:53;;;;;;;2.92;0.90;;;;;;;21.74;32.64;99415.80;1785721;80;21236;-44
2022/05/13 10:53:35;;;;;;;4.70;0.90;;;;;;;21.57;32.54;99426.09;1756746;80;21083;-44
2022/05/13 10:56:12;;;;;;;1.98;0.90;;;;;;;21.45;33.37;99421.86;1769226;79;21037;-43
2022/05/13 10:59:10;;;;;;;3.25;0.98;;;;;;;21.37;32.93;99412.22;1766548;81;21577;-44
2022/05/13 11:01:49;;;;;;;1.65;0.90;;;;;;;21.35;33.27;99420.91;1767030;81;21016;-44
2022/05/13 11:04:50;;;;;;;2.75;1.05;;;;;;;21.28;32.57;99405.92;1766472;81;23096;-44
2022/05/13 11:10:25;;;;;;;2.55;0.90;;;;;;;21.37;32.97;99401.19;1795205;78;22139;-44
2022/05/13 11:13:14;;;;;;;4.03;1.07;;;;;;;21.46;32.87;99402.12;1789533;80;21479;-44
2022/05/13 11:16:01;;;;;;;2.70;1.22;;;;;;;21.55;32.75;99397.38;1769822;79;21008;-44
2022/05/13 11:19:04;;;;;;;2.35;0.85;;;;;;;21.66;33.54;99395.91;1782066;80;21542;-44
2022/05/13 11:21:40;;;;;;;3.47;0.95;;;;;;;21.70;32.20;99382.02;1791923;80;21806;-44
2022/05/13 11:27:39;;;;;;;2.52;1.10;;;;;;;21.62;31.82;99380.66;1762363;79;21592;-45
2022/05/13 11:30:14;;;;;;;2.80;0.88;;;;;;;21.52;32.62;99378.94;1783193;79;21209;-45
2022/05/13 11:32:54;;;;;;;2.50;0.85;;;;;;;21.52;33.36;99380.32;1768248;79;20963;-45
2022/05/13 11:35:24;;;;;;;;;;;;;;;21.55;33.20;99377.47;1781855;79;20917;-45
2022/05/13 11:37:56;;;;;;;7.30;0.90;;;;;;;21.57;32.90;99366.78;1772914;80;20163;-45
2022/05/13 11:40:50;;;;;;;2.98;0.90;;;;;;;21.47;32.67;99362.31;1777257;79;21057;-45
2022/05/13 11:43:41;;;;;;;3.22;0.90;;;;;;;21.63;32.29;99358.16;1764538;79;23197;-45
2022/05/13 11:46:41;;;;;;;3.85;1.20;;;;;;;21.77;32.36;99363.91;1780717;79;20964;-44
2022/05/13 11:49:26;;;;;;;3.08;1.32;;;;;;;21.91;32.31;99358.00;1757898;80;21578;-44
2022/05/13 11:51:54;;;;;;;3.00;1.00;;;;;;;21.98;32.49;99361.97;1790544;80;21060;-44
2022/05/13 11:54:30;;;;;;;1.95;0.90;;;;;;;22.03;31.59;99371.09;1760149;79;21020;-44
2022/05/13 11:57:24;;;;;;;3.42;1.25;;;;;;;22.06;31.83;99367.48;1759985;79;21316;-45
2022/05/13 12:00:01;;;;;;;3.60;1.17;;;;;;;22.16;31.37;99371.76;1765018;79;21607;-45
2022/05/13 12:02:47;;;;;;;1.87;1.15;;;;;;;22.39;32.36;99361.81;1767013;80;20979;-45
2022/05/13 12:05:23;;;;;;;3.90;1.10;;;;;;;22.70;30.99;99360.13;1750608;79;20961;-45
2022/05/13 12:08:09;;;;;;;5.03;1.30;;;;;;;22.83;31.91;99348.47;1758876;81;21029;-45
2022/05/13 12:11:03;;;;;;;3.90;1.17;;;;;;;22.96;31.77;99354.76;1759365;81;21115;-45
2022/05/13 12:13:57;;;;;;;3.67;1.32;;;;;;;23.04;31.28;99349.80;1758807;81;21664;-45
2022/05/13 12:16:38;;;;;;;3.90;0.93;;;;;;;23.09;30.45;99351.23;1737626;81;21033;-45
2022/05/13 12:19:42;;;;;;;3.70;1.25;;;;;;;23.16;30.89;99348.22;1755579;81;20979;-45
2022/05/13 12:22:34;;;;;;;2.62;0.98;;;;;;;23.19;31.23;99341.81;1756219;81;21036;-45